Time;durP1;ratioP1;P1;durP2;ratioP2;P2;SDS_P1;SDS_P2;PMS_P1;PMS_P2;Temp;Humidity;BMP_temperature;BMP_pressure;BME280_temperature;BME280_humidity;BME280_pressure;Samples;Min_cycle;Max_cycle;Signal;HPM_P1;HPM_P2
2022/01/23 00:00:47;;;;;;;38.17;24.05;;;7.10;99.90;;;;;;4143846;28;20034;-62
2022/01/23 00:02:50;;;;;;;31.23;20.98;;;7.00;99.90;;;;;;4147701;28;20038;-61
2022/01/23 00:04:51;;;;;;;30.70;21.45;;;7.00;99.90;;;;;;4145932;28;20062;-62
2022/01/23 00:06:52;;;;;;;30.50;21.50;;;7.00;99.90;;;;;;4147141;28;20029;-62
2022/01/23 00:08:53;;;;;;;27.50;19.27;;;7.10;99.90;;;;;;4144535;28;20032;-62
2022/01/23 00:10:55;;;;;;;29.15;20.17;;;7.10;99.90;;;;;;4147367;28;20048;-62
2022/01/23 00:13:08;;;;;;;28.95;20.48;;;7.10;99.90;;;;;;4145424;28;20096;-62
2022/01/23 00:17:33;;;;;;;28.23;19.75;;;7.20;99.90;;;;;;4143773;28;20038;-62
2022/01/23 00:19:34;;;;;;;34.08;22.67;;;7.20;99.90;;;;;;4143449;28;20095;-62
2022/01/23 00:21:37;;;;;;;35.35;23.25;;;7.20;99.90;;;;;;4142205;28;20062;-63
2022/01/23 00:30:32;;;;;;;30.25;21.63;;;7.20;99.90;;;;;;4145629;28;20030;-61
2022/01/23 00:32:32;;;;;;;30.95;21.27;;;7.20;99.90;;;;;;4146026;28;20069;-61
2022/01/23 00:34:33;;;;;;;31.42;21.13;;;7.20;99.90;;;;;;4144269;28;20469;-67
2022/01/23 00:36:35;;;;;;;33.65;21.20;;;7.20;99.90;;;;;;4144918;28;20030;-63
2022/01/23 00:38:35;;;;;;;31.90;22.03;;;7.20;99.90;;;;;;4144223;28;20375;-64
2022/01/23 00:40:38;;;;;;;34.33;22.80;;;7.20;99.90;;;;;;4144088;28;20053;-63
2022/01/23 00:42:39;;;;;;;34.20;23.33;;;7.20;99.90;;;;;;4145494;28;20084;-64
2022/01/23 00:44:40;;;;;;;34.72;24.48;;;7.20;99.90;;;;;;4146003;28;20053;-63
2022/01/23 00:46:48;;;;;;;32.15;22.92;;;7.20;99.90;;;;;;4144630;28;20120;-63
2022/01/23 00:50:58;;;;;;;33.80;23.67;;;7.10;99.90;;;;;;4141250;28;20085;-62
2022/01/23 00:52:59;;;;;;;37.00;23.45;;;7.10;99.90;;;;;;4142655;28;20046;-61
2022/01/23 00:55:00;;;;;;;30.90;21.83;;;7.10;99.90;;;;;;4141587;28;20038;-62
2022/01/23 00:57:00;;;;;;;32.45;21.80;;;7.10;99.90;;;;;;4138787;28;20238;-62
2022/01/23 00:59:02;;;;;;;31.52;22.63;;;7.10;99.90;;;;;;4140919;28;20070;-62
2022/01/23 01:01:03;;;;;;;40.33;23.80;;;7.10;99.90;;;;;;4140716;28;20045;-62
2022/01/23 01:03:04;;;;;;;30.60;21.42;;;7.10;99.90;;;;;;4140630;28;20497;-61
2022/01/23 01:05:05;;;;;;;32.33;22.52;;;7.20;99.90;;;;;;4138857;28;20045;-63
2022/01/23 01:07:06;;;;;;;34.53;24.00;;;7.20;99.90;;;;;;4141037;28;20049;-63
2022/01/23 01:09:08;;;;;;;32.58;22.50;;;7.20;99.90;;;;;;4143325;28;20412;-62
2022/01/23 01:13:28;;;;;;;33.85;22.45;;;7.20;99.90;;;;;;4137200;28;20050;-62
2022/01/23 01:30:10;;;;;;;37.92;24.63;;;7.20;99.90;;;;;;4142104;28;20038;-62
2022/01/23 01:31:41;;;;;;;32.30;22.42;;;7.20;99.90;;;;;;4136009;28;20035;-61
2022/01/23 01:37:45;;;;;;;36.97;23.92;;;7.20;99.90;;;;;;4136554;28;20027;-61
2022/01/23 01:39:46;;;;;;;35.17;23.13;;;7.20;99.90;;;;;;4140755;28;20032;-62
2022/01/23 01:41:48;;;;;;;37.92;23.92;;;7.30;99.90;;;;;;4138861;28;20041;-62
2022/01/23 01:43:50;;;;;;;35.10;23.67;;;7.20;99.90;;;;;;4102553;28;1068278;-62
2022/01/23 01:45:53;;;;;;;35.60;22.20;;;7.20;99.90;;;;;;4135989;28;20050;-62
2022/01/23 01:47:56;;;;;;;34.00;23.48;;;7.20;99.90;;;;;;4138670;28;20119;-60
2022/01/23 01:49:57;;;;;;;34.03;23.52;;;7.20;99.90;;;;;;4139504;28;20433;-61
2022/01/23 01:52:00;;;;;;;37.75;25.70;;;7.20;99.90;;;;;;4140809;28;20049;-62
2022/01/23 01:54:08;;;;;;;34.83;23.38;;;7.20;99.90;;;;;;4139958;28;20038;-61
2022/01/23 01:56:09;;;;;;;33.05;22.45;;;7.20;99.90;;;;;;4141442;28;20447;-60
2022/01/23 01:58:33;;;;;;;33.58;23.70;;;7.20;99.90;;;;;;4145533;28;20041;-62
2022/01/23 02:11:47;;;;;;;39.38;25.85;;;7.10;99.90;;;;;;4136599;28;20032;-62
2022/01/23 02:13:51;;;;;;;39.90;23.90;;;7.00;99.90;;;;;;4144160;28;20496;-62
2022/01/23 02:22:59;;;;;;;32.72;22.98;;;7.00;99.90;;;;;;4136086;28;20058;-61
2022/01/23 02:25:28;;;;;;;35.88;23.75;;;7.00;99.90;;;;;;4138391;28;20046;-62
2022/01/23 02:50:56;;;;;;;45.25;27.88;;;7.00;99.90;;;;;;4142972;28;20516;-61
2022/01/23 02:55:27;;;;;;;37.08;24.83;;;6.90;99.90;;;;;;4122150;28;20072;-62
2022/01/23 02:59:48;;;;;;;39.40;25.95;;;6.90;99.90;;;;;;4139678;28;20061;-62
2022/01/23 03:04:09;;;;;;;36.08;22.73;;;6.90;99.90;;;;;;4141332;28;19961;-62
2022/01/23 03:08:27;;;;;;;35.67;24.98;;;6.90;99.90;;;;;;4141148;28;20041;-61
2022/01/23 03:10:33;;;;;;;34.60;23.73;;;6.90;99.90;;;;;;4141925;28;20048;-61
2022/01/23 03:15:08;;;;;;;31.27;21.83;;;6.90;99.90;;;;;;4141238;28;20449;-62
2022/01/23 03:32:33;;;;;;;35.10;24.45;;;6.90;99.90;;;;;;4143511;28;20077;-62
2022/01/23 03:34:34;;;;;;;38.92;25.58;;;6.90;99.90;;;;;;4138937;28;20045;-61
2022/01/23 03:36:36;;;;;;;35.65;23.98;;;6.90;99.90;;;;;;4134545;28;20397;-61
2022/01/23 03:38:37;;;;;;;37.55;24.67;;;6.90;99.90;;;;;;4136936;28;20038;-62
2022/01/23 03:40:37;;;;;;;37.45;25.75;;;6.90;99.90;;;;;;4141552;28;20060;-62
2022/01/23 03:42:41;;;;;;;42.00;25.80;;;6.90;99.90;;;;;;4138893;28;20101;-62
2022/01/23 03:44:52;;;;;;;38.10;26.48;;;6.90;99.90;;;;;;4143657;28;20050;-60
2022/01/23 03:49:32;;;;;;;36.70;22.98;;;6.90;99.90;;;;;;4131383;28;20096;-61
2022/01/23 03:51:33;;;;;;;31.35;22.20;;;6.90;99.90;;;;;;4137650;28;20038;-62
2022/01/23 03:53:33;;;;;;;33.92;23.55;;;6.90;99.90;;;;;;4136812;28;20378;-61
2022/01/23 03:55:35;;;;;;;35.67;23.02;;;7.00;99.90;;;;;;4138295;28;20034;-61
2022/01/23 03:57:36;;;;;;;37.22;23.13;;;7.00;99.90;;;;;;4140138;28;20062;-61
2022/01/23 03:59:37;;;;;;;40.42;26.05;;;7.00;99.90;;;;;;4139312;28;20038;-62
2022/01/23 04:01:38;;;;;;;34.17;24.52;;;7.00;99.90;;;;;;4137758;28;20041;-62
2022/01/23 04:03:39;;;;;;;36.03;24.08;;;7.00;99.90;;;;;;4143198;28;20034;-62
2022/01/23 04:05:40;;;;;;;38.72;24.95;;;7.10;99.90;;;;;;4141047;28;20498;-62
2022/01/23 04:07:40;;;;;;;38.22;23.83;;;7.10;99.90;;;;;;4139842;28;20124;-62
2022/01/23 04:09:42;;;;;;;36.08;24.42;;;7.10;99.90;;;;;;4138465;28;20539;-62
2022/01/23 04:11:43;;;;;;;36.78;24.75;;;7.10;99.90;;;;;;4138097;28;20051;-62
2022/01/23 04:13:53;;;;;;;38.03;24.58;;;7.10;99.90;;;;;;4140577;28;20472;-61
2022/01/23 04:20:29;;;;;;;38.38;24.98;;;7.10;99.90;;;;;;4137376;28;20039;-62
2022/01/23 04:33:55;;;;;;;35.10;24.23;;;7.10;99.90;;;;;;4137519;28;20049;-61
2022/01/23 04:48:19;;;;;;;34.97;23.95;;;7.20;99.90;;;;;;4146819;28;20037;-61
2022/01/23 05:01:31;;;;;;;37.05;24.60;;;7.20;99.90;;;;;;4141857;28;20030;-62
2022/01/23 05:05:48;;;;;;;34.13;23.27;;;7.20;99.90;;;;;;4143657;28;20084;-62
2022/01/23 05:07:49;;;;;;;36.63;24.08;;;7.20;99.90;;;;;;4143679;28;20029;-62
2022/01/23 05:09:49;;;;;;;34.25;23.33;;;7.30;99.90;;;;;;4145634;28;20116;-62
2022/01/23 05:11:58;;;;;;;35.25;22.92;;;7.20;99.90;;;;;;4144466;28;20053;-61
2022/01/23 05:14:02;;;;;;;36.80;24.00;;;7.20;99.90;;;;;;4141610;28;20069;-62
2022/01/23 05:16:03;;;;;;;36.65;24.58;;;7.30;99.90;;;;;;4144302;28;20531;-61
2022/01/23 05:18:03;;;;;;;33.15;23.27;;;7.20;99.90;;;;;;4145792;28;20657;-61
2022/01/23 05:20:05;;;;;;;36.78;24.80;;;7.30;99.90;;;;;;4145778;28;20112;-62
2022/01/23 05:24:32;;;;;;;32.50;23.23;;;7.20;99.90;;;;;;4158156;28;22644;-61
2022/01/23 05:26:41;;;;;;;39.75;25.38;;;7.20;99.90;;;;;;4141810;28;20371;-62
2022/01/23 05:28:42;;;;;;;40.45;26.52;;;7.20;99.90;;;;;;4143245;28;20042;-62
2022/01/23 05:30:43;;;;;;;40.22;26.67;;;7.20;99.90;;;;;;4141111;28;20125;-61
2022/01/23 05:32:44;;;;;;;41.28;26.55;;;7.30;99.90;;;;;;4144879;28;20046;-63
2022/01/23 05:34:45;;;;;;;38.65;26.83;;;7.20;99.90;;;;;;4145109;28;20045;-62
2022/01/23 05:36:45;;;;;;;40.17;27.33;;;7.20;99.90;;;;;;4143995;28;20030;-61
2022/01/23 05:38:46;;;;;;;38.17;25.52;;;7.20;99.90;;;;;;4144622;28;20384;-61
2022/01/23 05:40:55;;;;;;;34.95;24.48;;;7.20;99.90;;;;;;4144364;28;20046;-60
2022/01/23 05:42:56;;;;;;;36.15;24.90;;;7.20;99.90;;;;;;4144846;28;20033;-60
2022/01/23 05:44:56;;;;;;;36.10;24.50;;;7.20;99.90;;;;;;4143217;28;20050;-61
2022/01/23 05:46:57;;;;;;;38.67;25.95;;;7.20;99.90;;;;;;4142238;28;20133;-62
2022/01/23 05:48:57;;;;;;;38.13;25.13;;;7.20;99.90;;;;;;4144037;28;20050;-61
2022/01/23 05:50:58;;;;;;;36.72;25.42;;;7.20;99.90;;;;;;4145154;28;20042;-61
2022/01/23 05:52:58;;;;;;;35.03;24.30;;;7.20;99.90;;;;;;4141406;28;20054;-61
2022/01/23 05:54:59;;;;;;;36.95;24.55;;;7.20;99.90;;;;;;4145305;28;20042;-61
2022/01/23 05:57:00;;;;;;;38.40;25.15;;;7.20;99.90;;;;;;4144255;28;20065;-61
2022/01/23 05:59:01;;;;;;;35.20;24.83;;;7.20;99.90;;;;;;4140791;28;20038;-61
2022/01/23 06:01:02;;;;;;;35.20;24.92;;;7.20;99.90;;;;;;4143808;28;20061;-61
2022/01/23 06:03:03;;;;;;;36.15;23.65;;;7.20;99.90;;;;;;4142332;28;20547;-61
2022/01/23 06:05:04;;;;;;;34.65;23.90;;;7.20;99.90;;;;;;4142237;28;20096;-63
2022/01/23 06:07:05;;;;;;;36.53;24.52;;;7.20;99.90;;;;;;4144030;28;20504;-61
2022/01/23 06:09:05;;;;;;;37.90;25.48;;;7.20;99.90;;;;;;4144099;28;20030;-61
2022/01/23 06:11:06;;;;;;;38.75;26.17;;;7.20;99.90;;;;;;4145380;28;20041;-61
2022/01/23 06:13:06;;;;;;;38.53;24.83;;;7.20;99.90;;;;;;4145406;28;20054;-61
2022/01/23 06:15:07;;;;;;;35.63;24.80;;;7.20;99.90;;;;;;4142984;28;20042;-62
2022/01/23 06:17:08;;;;;;;38.85;24.58;;;7.20;99.90;;;;;;4145546;28;20096;-62
2022/01/23 06:19:09;;;;;;;36.08;24.33;;;7.30;99.90;;;;;;4143783;28;20034;-62
2022/01/23 06:21:09;;;;;;;34.13;23.95;;;7.30;99.90;;;;;;4144164;28;20034;-62
2022/01/23 06:23:10;;;;;;;36.97;24.40;;;7.30;99.90;;;;;;4144753;28;20042;-62
2022/01/23 06:25:13;;;;;;;35.63;24.58;;;7.30;99.90;;;;;;4141165;28;20128;-64
2022/01/23 06:27:14;;;;;;;37.08;24.15;;;7.30;99.90;;;;;;4143550;28;20038;-61
2022/01/23 06:29:17;;;;;;;34.50;23.35;;;7.30;99.90;;;;;;4143053;28;20045;-62
2022/01/23 06:31:17;;;;;;;37.58;25.25;;;7.30;99.90;;;;;;4142018;28;20045;-60
2022/01/23 06:33:18;;;;;;;36.50;25.02;;;7.30;99.90;;;;;;4144551;28;20042;-60
2022/01/23 06:35:19;;;;;;;38.13;24.95;;;7.30;99.90;;;;;;4143042;28;20042;-62
2022/01/23 06:37:19;;;;;;;36.83;24.75;;;7.30;99.90;;;;;;4143930;28;20054;-61
2022/01/23 06:39:21;;;;;;;37.40;24.77;;;7.30;99.90;;;;;;4141753;28;20038;-62
2022/01/23 06:41:22;;;;;;;34.70;24.07;;;7.30;99.90;;;;;;4144114;28;20385;-61
2022/01/23 06:43:22;;;;;;;38.70;24.45;;;7.20;99.90;;;;;;4143756;28;20392;-61
2022/01/23 06:45:23;;;;;;;33.65;24.05;;;7.30;99.90;;;;;;4142568;28;20042;-62
2022/01/23 06:47:25;;;;;;;38.55;25.90;;;7.30;99.90;;;;;;4143811;28;20512;-61
2022/01/23 06:49:25;;;;;;;33.97;24.13;;;7.30;99.90;;;;;;4144850;28;20167;-61
2022/01/23 06:51:26;;;;;;;33.65;23.02;;;7.30;99.90;;;;;;4142539;28;20292;-62
2022/01/23 06:53:27;;;;;;;36.75;25.08;;;7.20;99.90;;;;;;4136650;28;20038;-60
2022/01/23 06:55:27;;;;;;;35.97;24.35;;;7.30;99.90;;;;;;4140669;28;20141;-61
2022/01/23 06:57:28;;;;;;;35.78;24.77;;;7.30;99.90;;;;;;4142635;28;20133;-61
2022/01/23 06:59:29;;;;;;;33.55;23.10;;;7.30;99.90;;;;;;4144049;28;20084;-61
2022/01/23 07:01:29;;;;;;;35.45;24.35;;;7.30;99.90;;;;;;4141585;28;20034;-61
2022/01/23 07:03:30;;;;;;;37.97;24.73;;;7.30;99.90;;;;;;4138999;28;20034;-61
2022/01/23 07:05:30;;;;;;;36.88;25.45;;;7.30;99.90;;;;;;4144126;28;20039;-61
2022/01/23 07:07:31;;;;;;;37.92;24.98;;;7.30;99.90;;;;;;4143934;28;20042;-61
2022/01/23 07:09:32;;;;;;;37.80;25.13;;;7.30;99.90;;;;;;4143242;28;20044;-61
2022/01/23 07:11:32;;;;;;;39.55;25.60;;;7.30;99.90;;;;;;4139938;28;20041;-61
2022/01/23 07:13:33;;;;;;;35.65;24.15;;;7.30;99.90;;;;;;4134845;28;20039;-62
2022/01/23 07:15:33;;;;;;;37.40;25.20;;;7.30;99.90;;;;;;4142873;28;20033;-60
2022/01/23 07:17:41;;;;;;;39.15;26.55;;;7.30;99.90;;;;;;4137525;28;20050;-64
2022/01/23 07:19:42;;;;;;;37.95;25.55;;;7.30;99.90;;;;;;4137818;28;20194;-61
2022/01/23 07:21:42;;;;;;;36.40;25.00;;;7.30;99.90;;;;;;4142361;28;21146;-61
2022/01/23 07:23:50;;;;;;;37.13;25.52;;;7.30;99.90;;;;;;4142181;28;20072;-62
2022/01/23 07:25:51;;;;;;;34.75;22.83;;;7.30;99.90;;;;;;4143393;28;20030;-61
2022/01/23 07:27:55;;;;;;;37.55;25.15;;;7.30;99.90;;;;;;4141690;28;20034;-63
2022/01/23 07:29:56;;;;;;;36.15;24.83;;;7.30;99.90;;;;;;4141268;28;20025;-63
2022/01/23 07:31:59;;;;;;;36.47;24.67;;;7.30;99.90;;;;;;4142576;28;20121;-62
2022/01/23 07:34:04;;;;;;;39.67;25.70;;;7.30;99.90;;;;;;4145820;28;20038;-61
2022/01/23 07:36:05;;;;;;;35.00;24.85;;;7.30;99.90;;;;;;4148707;28;20034;-61
2022/01/23 07:38:06;;;;;;;33.95;23.98;;;7.30;99.90;;;;;;4140983;28;20038;-61
2022/01/23 07:40:07;;;;;;;37.15;25.63;;;7.30;99.90;;;;;;4135827;28;20038;-63
2022/01/23 07:42:08;;;;;;;36.33;25.02;;;7.40;99.90;;;;;;4138079;28;20460;-61
2022/01/23 07:44:08;;;;;;;40.53;26.08;;;7.30;99.90;;;;;;4143518;28;20053;-63
2022/01/23 07:46:09;;;;;;;37.83;25.27;;;7.30;99.90;;;;;;4137385;28;20576;-62
2022/01/23 07:48:10;;;;;;;36.25;24.27;;;7.40;99.90;;;;;;4144232;28;20128;-62
2022/01/23 07:50:12;;;;;;;36.03;24.33;;;7.30;99.90;;;;;;4142014;28;20042;-62
2022/01/23 07:52:12;;;;;;;37.63;24.15;;;7.40;99.90;;;;;;4142707;28;20054;-60
2022/01/23 07:54:13;;;;;;;37.60;24.85;;;7.40;99.90;;;;;;4140407;28;20073;-60
2022/01/23 07:56:14;;;;;;;35.33;24.35;;;7.40;99.90;;;;;;4143702;28;20473;-62
2022/01/23 07:58:15;;;;;;;39.28;25.25;;;7.40;99.90;;;;;;4141019;28;20088;-61
2022/01/23 08:00:15;;;;;;;36.08;24.25;;;7.40;99.90;;;;;;4143548;28;20056;-61
2022/01/23 08:02:16;;;;;;;36.22;23.85;;;7.40;99.90;;;;;;4136188;28;20046;-62
2022/01/23 08:04:16;;;;;;;35.38;25.33;;;7.40;99.90;;;;;;4140663;28;20470;-62
2022/01/23 08:06:17;;;;;;;37.45;25.52;;;7.40;99.90;;;;;;4141428;28;20485;-61
2022/01/23 08:08:17;;;;;;;37.72;26.08;;;7.40;99.90;;;;;;4141199;28;20385;-61
2022/01/23 08:10:18;;;;;;;37.72;25.83;;;7.40;99.90;;;;;;4143676;28;20046;-60
2022/01/23 08:12:21;;;;;;;36.83;25.30;;;7.40;99.90;;;;;;4145041;28;20100;-61
2022/01/23 08:14:22;;;;;;;36.33;25.15;;;7.40;99.90;;;;;;4141737;28;20068;-61
2022/01/23 08:16:22;;;;;;;40.75;27.15;;;7.40;99.90;;;;;;4144596;28;20042;-61
2022/01/23 08:18:23;;;;;;;41.33;26.00;;;7.40;99.90;;;;;;4147270;28;20077;-61
2022/01/23 08:20:24;;;;;;;36.88;25.05;;;7.40;99.90;;;;;;4141262;28;20055;-61
2022/01/23 08:22:26;;;;;;;43.92;26.80;;;7.40;99.90;;;;;;4144347;28;20037;-61
2022/01/23 08:24:27;;;;;;;37.13;25.30;;;7.40;99.90;;;;;;4144852;28;20524;-59
2022/01/23 08:26:27;;;;;;;40.38;26.23;;;7.40;99.90;;;;;;4146241;28;20126;-61
2022/01/23 08:28:28;;;;;;;37.47;25.77;;;7.40;99.90;;;;;;4146787;28;20045;-61
2022/01/23 08:30:29;;;;;;;37.25;24.92;;;7.40;99.90;;;;;;4147997;28;20049;-61
2022/01/23 08:32:29;;;;;;;38.30;26.35;;;7.40;99.90;;;;;;4145781;28;20489;-60
2022/01/23 08:34:30;;;;;;;38.72;25.67;;;7.40;99.90;;;;;;4145540;28;20062;-61
2022/01/23 08:36:33;;;;;;;36.78;25.60;;;7.30;99.90;;;;;;4145262;28;20045;-61
2022/01/23 08:38:34;;;;;;;;;;;7.30;99.90;;;;;;4143753;28;20022;-61
2022/01/23 08:40:47;;;;;;;37.90;24.85;;;7.30;99.90;;;;;;4145614;28;19916;-61
2022/01/23 08:42:51;;;;;;;37.33;24.70;;;7.30;99.90;;;;;;4144717;28;20046;-61
2022/01/23 08:44:53;;;;;;;39.25;25.98;;;7.30;99.90;;;;;;4147095;28;20393;-62
2022/01/23 08:46:54;;;;;;;40.08;26.65;;;7.30;99.90;;;;;;4143909;28;20037;-61
2022/01/23 08:48:56;;;;;;;35.53;25.20;;;7.30;99.90;;;;;;4142921;28;20046;-61
2022/01/23 08:50:57;;;;;;;45.50;25.90;;;7.30;99.90;;;;;;4146340;28;20456;-61
2022/01/23 08:52:57;;;;;;;38.10;24.92;;;7.40;99.90;;;;;;4145135;28;20097;-61
2022/01/23 08:54:58;;;;;;;38.60;26.00;;;7.30;99.90;;;;;;4142068;28;20040;-61
2022/01/23 08:56:59;;;;;;;36.63;24.30;;;7.30;99.90;;;;;;4142183;28;20168;-59
2022/01/23 08:58:59;;;;;;;36.97;24.83;;;7.30;99.90;;;;;;4144607;28;20042;-61
2022/01/23 09:01:00;;;;;;;39.33;25.50;;;7.30;99.90;;;;;;4143893;28;20393;-61
2022/01/23 09:03:01;;;;;;;40.70;26.17;;;7.40;99.90;;;;;;4146125;28;20189;-61
2022/01/23 09:05:02;;;;;;;41.50;26.80;;;7.40;99.90;;;;;;4146181;28;20108;-63
2022/01/23 09:07:03;;;;;;;41.42;25.83;;;7.30;99.90;;;;;;4145902;28;20034;-61
2022/01/23 09:09:04;;;;;;;40.58;26.27;;;7.30;99.90;;;;;;4146232;28;20515;-61
2022/01/23 09:11:10;;;;;;;40.30;26.92;;;7.30;99.90;;;;;;4146255;28;20061;-60
2022/01/23 09:13:26;;;;;;;36.90;24.88;;;7.40;99.90;;;;;;4132519;28;20050;-61
2022/01/23 09:15:30;;;;;;;37.60;24.58;;;7.40;99.90;;;;;;4129567;28;20094;-61
2022/01/23 09:17:30;;;;;;;39.03;26.08;;;7.30;99.90;;;;;;4129862;28;20145;-61
2022/01/23 09:19:32;;;;;;;41.30;26.42;;;7.40;99.90;;;;;;4131508;28;20035;-61
2022/01/23 09:21:33;;;;;;;41.22;26.33;;;7.40;99.90;;;;;;4128722;28;20103;-61
2022/01/23 09:23:34;;;;;;;40.97;26.13;;;7.40;99.90;;;;;;4129136;28;20182;-61
2022/01/23 09:25:35;;;;;;;39.45;25.88;;;7.40;99.90;;;;;;4130815;28;20041;-61
2022/01/23 09:27:38;;;;;;;36.63;25.25;;;7.40;99.90;;;;;;4129758;28;20054;-61
2022/01/23 09:29:42;;;;;;;39.55;25.05;;;7.40;99.90;;;;;;4129231;28;20045;-61
2022/01/23 09:31:49;;;;;;;41.75;27.40;;;7.50;99.90;;;;;;4127673;28;20074;-62
2022/01/23 09:33:50;;;;;;;41.63;25.60;;;7.50;99.90;;;;;;4124013;28;20042;-61
2022/01/23 09:35:50;;;;;;;46.20;28.95;;;7.50;99.90;;;;;;4129136;28;20030;-61
2022/01/23 09:37:51;;;;;;;40.65;26.73;;;7.40;99.90;;;;;;4128104;28;20129;-62
2022/01/23 09:39:52;;;;;;;40.05;25.92;;;7.50;99.90;;;;;;4129740;28;20031;-60
2022/01/23 09:42:19;;;;;;;41.42;26.17;;;7.50;99.90;;;;;;4130260;28;20038;-61
2022/01/23 09:44:20;;;;;;;37.58;25.00;;;7.50;99.90;;;;;;4126461;28;20049;-61
2022/01/23 09:46:24;;;;;;;44.80;27.35;;;7.50;99.90;;;;;;4120319;28;20039;-61
2022/01/23 09:48:25;;;;;;;39.40;24.48;;;7.50;99.90;;;;;;4130845;28;20516;-61
2022/01/23 09:50:26;;;;;;;42.47;26.48;;;7.50;99.90;;;;;;4124597;28;20066;-61
2022/01/23 09:52:32;;;;;;;44.25;26.90;;;7.50;99.90;;;;;;4131303;28;20080;-61
2022/01/23 09:54:33;;;;;;;43.13;26.75;;;7.50;99.90;;;;;;4129171;28;20525;-61
2022/01/23 09:56:35;;;;;;;41.28;26.17;;;7.50;99.90;;;;;;4123731;28;20130;-61
2022/01/23 09:58:39;;;;;;;43.92;27.88;;;7.60;99.90;;;;;;4126416;28;20042;-61
2022/01/23 10:00:40;;;;;;;39.90;25.48;;;7.60;99.90;;;;;;4128708;28;20051;-61
2022/01/23 10:02:41;;;;;;;40.30;24.67;;;7.60;99.90;;;;;;4127116;28;20053;-64
2022/01/23 10:04:42;;;;;;;39.83;25.23;;;7.60;99.90;;;;;;4122052;28;20035;-62
2022/01/23 10:06:43;;;;;;;40.17;25.13;;;7.60;99.90;;;;;;4127766;28;20465;-61
2022/01/23 10:08:44;;;;;;;40.78;26.13;;;7.60;99.90;;;;;;4122263;28;20057;-62
2022/01/23 10:10:51;;;;;;;40.22;26.38;;;7.70;99.90;;;;;;4127545;28;20470;-61
2022/01/23 10:12:55;;;;;;;42.65;25.92;;;7.70;99.90;;;;;;4126721;28;20049;-61
2022/01/23 10:14:56;;;;;;;45.33;27.67;;;7.70;99.90;;;;;;4130213;28;20122;-61
2022/01/23 10:16:57;;;;;;;51.53;27.60;;;7.70;99.90;;;;;;4123402;28;20039;-61
2022/01/23 10:18:59;;;;;;;46.78;28.85;;;7.70;99.90;;;;;;4123643;28;20031;-61
2022/01/23 10:21:00;;;;;;;43.28;26.90;;;7.70;99.90;;;;;;4125694;28;20042;-61
2022/01/23 10:23:00;;;;;;;49.65;27.70;;;7.70;99.90;;;;;;4122866;28;20360;-63
2022/01/23 10:25:10;;;;;;;45.42;26.83;;;7.70;99.90;;;;;;4130081;28;20056;-62
2022/01/23 10:27:10;;;;;;;44.90;26.52;;;7.80;99.90;;;;;;4125173;28;20034;-61
2022/01/23 10:29:13;;;;;;;46.58;28.30;;;7.70;99.90;;;;;;4126514;28;20034;-63
2022/01/23 10:31:14;;;;;;;50.08;29.17;;;7.70;99.90;;;;;;4125991;28;20039;-61
2022/01/23 10:33:19;;;;;;;45.05;26.98;;;7.80;99.90;;;;;;4127793;28;20126;-62
2022/01/23 10:35:22;;;;;;;50.22;27.70;;;7.80;99.90;;;;;;4126439;28;20460;-61
2022/01/23 10:37:41;;;;;;;49.97;28.23;;;7.80;99.90;;;;;;4130528;28;20105;-61
2022/01/23 10:39:45;;;;;;;54.72;29.85;;;7.80;99.90;;;;;;4125904;28;20065;-62
2022/01/23 10:42:00;;;;;;;51.33;30.00;;;7.80;99.90;;;;;;4125532;28;20049;-62
2022/01/23 10:46:37;;;;;;;48.78;27.95;;;7.80;99.90;;;;;;4127543;28;20058;-61
2022/01/23 10:48:47;;;;;;;47.38;28.50;;;7.80;99.90;;;;;;4125490;28;20111;-61
2022/01/23 10:50:48;;;;;;;46.92;28.08;;;7.80;99.90;;;;;;4121421;28;20053;-61
2022/01/23 10:52:51;;;;;;;48.60;28.58;;;7.90;99.90;;;;;;4126128;28;20050;-61
2022/01/23 10:54:52;;;;;;;48.45;29.27;;;7.90;99.90;;;;;;4126893;28;20034;-61
2022/01/23 10:56:57;;;;;;;47.08;29.05;;;7.90;99.90;;;;;;4124981;28;20069;-61
2022/01/23 10:59:10;;;;;;;53.88;29.63;;;7.90;99.90;;;;;;4127494;28;20039;-61
2022/01/23 11:01:10;;;;;;;48.83;29.08;;;7.90;99.90;;;;;;4124486;28;20497;-60
2022/01/23 11:03:22;;;;;;;57.92;30.60;;;7.90;99.90;;;;;;4127259;28;20038;-61
2022/01/23 11:05:34;;;;;;;53.33;30.33;;;7.90;99.90;;;;;;4122925;28;21033;-61
2022/01/23 11:07:40;;;;;;;50.85;30.00;;;7.90;99.90;;;;;;4129889;28;20081;-61
2022/01/23 11:09:41;;;;;;;58.80;29.98;;;7.90;99.90;;;;;;4131744;28;20050;-61
2022/01/23 11:11:45;;;;;;;52.03;30.63;;;7.90;99.90;;;;;;4127952;28;20056;-64
2022/01/23 11:18:34;;;;;;;49.00;28.08;;;8.00;99.90;;;;;;4126303;28;20118;-61
2022/01/23 11:20:39;;;;;;;50.47;30.83;;;8.00;99.90;;;;;;4126984;28;20048;-61
2022/01/23 11:22:40;;;;;;;49.55;29.83;;;8.00;99.90;;;;;;4125617;28;20035;-61
2022/01/23 11:24:45;;;;;;;49.83;28.95;;;8.00;99.90;;;;;;4126637;28;20110;-61
2022/01/23 11:26:46;;;;;;;53.20;29.80;;;8.00;99.90;;;;;;4125180;28;20419;-60
2022/01/23 11:28:47;;;;;;;61.00;32.92;;;8.00;99.90;;;;;;4128207;28;20035;-61
2022/01/23 11:30:48;;;;;;;48.78;29.13;;;8.00;99.90;;;;;;4127577;28;20474;-62
2022/01/23 11:32:49;;;;;;;53.88;29.60;;;8.00;99.90;;;;;;4123847;28;20046;-62
2022/01/23 11:34:54;;;;;;;55.75;31.77;;;8.10;99.90;;;;;;4119897;28;20386;-61
2022/01/23 11:36:55;;;;;;;62.67;33.00;;;8.10;99.90;;;;;;4125249;28;20035;-61
2022/01/23 11:39:04;;;;;;;50.80;29.23;;;8.10;99.90;;;;;;4124562;28;20050;-61
2022/01/23 11:55:35;;;;;;;57.55;33.30;;;8.00;99.90;;;;;;4144229;28;20490;-62
2022/01/23 11:57:41;;;;;;;53.28;30.08;;;8.00;99.90;;;;;;4139584;28;20189;-61
2022/01/23 11:59:47;;;;;;;54.50;31.75;;;8.10;99.90;;;;;;4146463;28;20033;-65
2022/01/23 12:02:20;;;;;;;58.40;31.30;;;8.00;99.90;;;;;;4143743;28;20049;-62
2022/01/23 12:04:22;;;;;;;57.33;30.80;;;8.00;99.90;;;;;;4145678;28;20385;-61
2022/01/23 12:06:22;;;;;;;59.83;32.87;;;8.00;99.90;;;;;;4146342;28;20034;-62
2022/01/23 12:08:35;;;;;;;53.65;31.15;;;8.00;99.90;;;;;;4144384;28;20799;-61
2022/01/23 12:10:52;;;;;;;58.30;31.92;;;8.00;99.90;;;;;;4143727;28;20032;-61
2022/01/23 12:13:55;;;;;;;59.33;30.40;;;8.10;99.90;;;;;;4128621;28;20078;-61
2022/01/23 12:18:18;;;;;;;53.30;28.77;;;8.10;99.90;;;;;;4142858;28;20026;-63
2022/01/23 12:20:33;;;;;;;56.75;29.85;;;8.10;99.90;;;;;;4140515;28;20434;-61
2022/01/23 12:22:45;;;;;;;56.65;29.30;;;8.10;99.90;;;;;;4147923;28;20042;-61
2022/01/23 12:24:51;;;;;;;56.42;29.90;;;8.10;99.90;;;;;;4145280;28;20137;-61
2022/01/23 12:27:24;;;;;;;57.45;31.35;;;8.10;99.90;;;;;;4144629;28;20113;-61
2022/01/23 12:29:25;;;;;;;57.03;29.55;;;8.10;99.90;;;;;;4147601;28;20117;-61
2022/01/23 12:31:27;;;;;;;54.60;30.47;;;8.10;99.90;;;;;;4146953;28;20041;-62
2022/01/23 12:33:30;;;;;;;51.95;29.02;;;8.10;99.90;;;;;;4145497;28;20752;-61
2022/01/23 12:35:40;;;;;;;52.92;28.25;;;8.10;99.90;;;;;;4142373;28;20069;-61
2022/01/23 12:37:55;;;;;;;57.72;30.75;;;8.10;99.90;;;;;;4143665;28;20042;-61
2022/01/23 12:40:22;;;;;;;57.75;32.85;;;8.10;99.90;;;;;;4143817;28;20058;-62
2022/01/23 12:42:22;;;;;;;55.42;30.00;;;8.10;99.90;;;;;;4142211;28;20052;-62
2022/01/23 12:44:23;;;;;;;54.13;30.08;;;8.10;99.90;;;;;;4140849;28;20144;-61
2022/01/23 12:46:41;;;;;;;53.75;30.15;;;8.10;99.90;;;;;;4142838;28;20046;-61
2022/01/23 12:48:45;;;;;;;54.72;29.88;;;8.10;99.90;;;;;;4144554;28;20453;-61
2022/01/23 12:50:46;;;;;;;55.40;29.10;;;8.10;99.90;;;;;;4147302;28;20366;-62
2022/01/23 12:52:50;;;;;;;55.42;30.83;;;8.10;99.90;;;;;;4143202;28;20115;-62
2022/01/23 12:54:57;;;;;;;53.53;29.48;;;8.10;99.90;;;;;;4143605;28;20045;-61
2022/01/23 12:57:15;;;;;;;56.42;30.65;;;8.10;99.90;;;;;;4143783;28;20066;-61
2022/01/23 12:59:29;;;;;;;51.97;28.55;;;8.10;99.90;;;;;;4140566;28;20125;-61
2022/01/23 13:01:31;;;;;;;53.97;30.48;;;8.10;99.90;;;;;;4143921;28;20141;-61
2022/01/23 13:03:31;;;;;;;61.47;32.38;;;8.10;99.90;;;;;;4144255;28;20052;-62
2022/01/23 13:05:32;;;;;;;56.08;31.15;;;8.10;99.90;;;;;;4146152;28;20046;-61
2022/01/23 13:09:50;;;;;;;56.67;31.77;;;8.10;99.90;;;;;;4144410;28;20046;-61
2022/01/23 13:14:47;;;;;;;67.77;33.97;;;8.20;99.90;;;;;;4142184;28;20130;-62
2022/01/23 13:17:13;;;;;;;62.63;31.55;;;8.10;99.90;;;;;;4149247;28;20029;-62
2022/01/23 13:19:45;;;;;;;59.08;30.33;;;8.10;99.90;;;;;;4143123;28;20054;-62
2022/01/23 13:30:56;;;;;;;56.60;30.30;;;8.20;99.90;;;;;;4141402;28;20034;-62
2022/01/23 13:33:09;;;;;;;53.13;28.77;;;8.20;99.90;;;;;;4147998;28;20545;-62
2022/01/23 13:35:14;;;;;;;51.13;27.67;;;8.20;99.90;;;;;;4144526;28;20057;-64
2022/01/23 13:37:22;;;;;;;52.40;28.40;;;8.20;99.90;;;;;;4140446;28;20039;-63
2022/01/23 13:39:30;;;;;;;54.17;28.67;;;8.30;99.90;;;;;;4145161;28;20076;-62
2022/01/23 13:41:45;;;;;;;47.67;27.40;;;8.20;99.90;;;;;;4143526;28;20144;-61